sensor_id;sensor_type;location;lat;lon;timestamp;pressure;altitude;pressure_sealevel;temperature;humidity
9035;BME280;4552;43.422;24.592;2023-03-01T00:01:36;100905.16;;;6.11;100.00
9035;BME280;4552;43.422;24.592;2023-03-01T00:04:03;100890.25;;;6.03;100.00
9035;BME280;4552;43.422;24.592;2023-03-01T00:06:30;100887.50;;;5.95;100.00
9035;BME280;4552;43.422;24.592;2023-03-01T00:08:57;100885.09;;;6.06;100.00
9035;BME280;4552;43.422;24.592;2023-03-01T00:11:27;100870.41;;;6.06;100.00
9035;BME280;4552;43.422;24.592;2023-03-01T00:13:56;100883.28;;;6.00;100.00
9035;BME280;4552;43.422;24.592;2023-03-01T00:16:26;100885.97;;;6.05;100.00
9035;BME280;4552;43.422;24.592;2023-03-01T00:18:55;100886.16;;;6.15;100.00
9035;BME280;4552;43.422;24.592;2023-03-01T00:21:23;100893.16;;;6.19;100.00
9035;BME280;4552;43.422;24.592;2023-03-01T00:23:50;100885.19;;;6.10;100.00
9035;BME280;4552;43.422;24.592;2023-03-01T00:26:18;100876.41;;;6.04;100.00
9035;BME280;4552;43.422;24.592;2023-03-01T00:28:51;100874.00;;;6.13;100.00
9035;BME280;4552;43.422;24.592;2023-03-01T00:31:20;100871.16;;;6.02;100.00
9035;BME280;4552;43.422;24.592;2023-03-01T00:33:52;100847.44;;;5.84;100.00
9035;BME280;4552;43.422;24.592;2023-03-01T00:36:23;100874.44;;;5.92;100.00
9035;BME280;4552;43.422;24.592;2023-03-01T00:38:51;100863.88;;;5.83;100.00
9035;BME280;4552;43.422;24.592;2023-03-01T00:41:20;100841.03;;;5.69;100.00
9035;BME280;4552;43.422;24.592;2023-03-01T00:43:50;100845.78;;;5.88;100.00
9035;BME280;4552;43.422;24.592;2023-03-01T00:46:18;100826.66;;;5.84;100.00
9035;BME280;4552;43.422;24.592;2023-03-01T00:48:46;100834.56;;;5.90;100.00
9035;BME280;4552;43.422;24.592;2023-03-01T00:51:16;100836.34;;;5.91;100.00
9035;BME280;4552;43.422;24.592;2023-03-01T00:53:44;100826.06;;;5.97;100.00
9035;BME280;4552;43.422;24.592;2023-03-01T00:56:13;100810.44;;;5.96;100.00
9035;BME280;4552;43.422;24.592;2023-03-01T00:58:40;100819.91;;;5.92;100.00
9035;BME280;4552;43.422;24.592;2023-03-01T01:01:11;100790.09;;;5.75;100.00
9035;BME280;4552;43.422;24.592;2023-03-01T01:03:43;100808.44;;;5.83;100.00
9035;BME280;4552;43.422;24.592;2023-03-01T01:06:14;100790.84;;;5.68;100.00
9035;BME280;4552;43.422;24.592;2023-03-01T01:08:41;100780.50;;;5.71;100.00
9035;BME280;4552;43.422;24.592;2023-03-01T01:11:09;100806.00;;;5.90;100.00
9035;BME280;4552;43.422;24.592;2023-03-01T01:13:36;100809.44;;;5.89;100.00
9035;BME280;4552;43.422;24.592;2023-03-01T01:16:05;100791.78;;;5.75;100.00
9035;BME280;4552;43.422;24.592;2023-03-01T01:18:34;100802.47;;;5.85;100.00
9035;BME280;4552;43.422;24.592;2023-03-01T01:21:05;100788.72;;;5.92;100.00
9035;BME280;4552;43.422;24.592;2023-03-01T01:23:33;100815.84;;;6.06;100.00
9035;BME280;4552;43.422;24.592;2023-03-01T01:26:04;100810.72;;;6.11;100.00
9035;BME280;4552;43.422;24.592;2023-03-01T01:28:31;100806.53;;;6.17;100.00
9035;BME280;4552;43.422;24.592;2023-03-01T01:30:58;100796.31;;;6.28;100.00
9035;BME280;4552;43.422;24.592;2023-03-01T01:33:26;100788.09;;;6.07;100.00
9035;BME280;4552;43.422;24.592;2023-03-01T01:35:55;100759.13;;;5.84;100.00
9035;BME280;4552;43.422;24.592;2023-03-01T01:38:23;100770.94;;;5.70;100.00
9035;BME280;4552;43.422;24.592;2023-03-01T01:40:51;100753.50;;;5.63;100.00
9035;BME280;4552;43.422;24.592;2023-03-01T01:43:21;100785.69;;;5.71;100.00
9035;BME280;4552;43.422;24.592;2023-03-01T01:45:49;100779.66;;;5.72;100.00
9035;BME280;4552;43.422;24.592;2023-03-01T01:48:19;100773.88;;;5.85;100.00
9035;BME280;4552;43.422;24.592;2023-03-01T01:50:54;100756.59;;;5.87;100.00
9035;BME280;4552;43.422;24.592;2023-03-01T01:53:24;100775.03;;;6.02;100.00
9035;BME280;4552;43.422;24.592;2023-03-01T01:55:54;100788.25;;;6.13;100.00
9035;BME280;4552;43.422;24.592;2023-03-01T01:58:24;100789.16;;;6.16;100.00
9035;BME280;4552;43.422;24.592;2023-03-01T02:00:53;100793.56;;;6.20;100.00
9035;BME280;4552;43.422;24.592;2023-03-01T02:03:23;100792.63;;;6.15;100.00
9035;BME280;4552;43.422;24.592;2023-03-01T02:05:57;100771.66;;;6.06;100.00
9035;BME280;4552;43.422;24.592;2023-03-01T02:08:30;100783.16;;;6.19;100.00
9035;BME280;4552;43.422;24.592;2023-03-01T02:10:59;100792.56;;;6.12;100.00
9035;BME280;4552;43.422;24.592;2023-03-01T02:13:30;100775.16;;;6.08;100.00
9035;BME280;4552;43.422;24.592;2023-03-01T02:15:57;100786.41;;;6.07;100.00
9035;BME280;4552;43.422;24.592;2023-03-01T02:18:26;100804.91;;;6.25;100.00
9035;BME280;4552;43.422;24.592;2023-03-01T02:21:05;100806.63;;;6.23;100.00
9035;BME280;4552;43.422;24.592;2023-03-01T02:23:36;100805.91;;;6.32;100.00
9035;BME280;4552;43.422;24.592;2023-03-01T02:26:09;100803.28;;;6.30;100.00
9035;BME280;4552;43.422;24.592;2023-03-01T02:28:43;100798.13;;;6.33;100.00
9035;BME280;4552;43.422;24.592;2023-03-01T02:31:16;100774.56;;;6.23;100.00
9035;BME280;4552;43.422;24.592;2023-03-01T02:34:01;100786.72;;;6.27;100.00
9035;BME280;4552;43.422;24.592;2023-03-01T02:36:31;100798.75;;;6.19;100.00
9035;BME280;4552;43.422;24.592;2023-03-01T02:39:03;100785.84;;;6.23;100.00
9035;BME280;4552;43.422;24.592;2023-03-01T02:41:35;100797.06;;;6.22;100.00
9035;BME280;4552;43.422;24.592;2023-03-01T02:44:05;100770.09;;;6.14;100.00
9035;BME280;4552;43.422;24.592;2023-03-01T02:46:32;100791.31;;;6.40;100.00
9035;BME280;4552;43.422;24.592;2023-03-01T02:48:59;100768.72;;;6.37;100.00
9035;BME280;4552;43.422;24.592;2023-03-01T02:51:38;100790.38;;;6.36;100.00
9035;BME280;4552;43.422;24.592;2023-03-01T02:54:20;100777.28;;;6.30;100.00
9035;BME280;4552;43.422;24.592;2023-03-01T02:56:48;100787.03;;;6.42;100.00
9035;BME280;4552;43.422;24.592;2023-03-01T02:59:18;100765.75;;;6.16;100.00
9035;BME280;4552;43.422;24.592;2023-03-01T03:01:46;100796.38;;;6.32;100.00
9035;BME280;4552;43.422;24.592;2023-03-01T03:04:15;100806.03;;;6.39;100.00
9035;BME280;4552;43.422;24.592;2023-03-01T03:06:43;100794.75;;;6.40;100.00
9035;BME280;4552;43.422;24.592;2023-03-01T03:09:10;100770.66;;;5.98;100.00
9035;BME280;4552;43.422;24.592;2023-03-01T03:11:40;100789.88;;;6.08;100.00
9035;BME280;4552;43.422;24.592;2023-03-01T03:14:08;100798.47;;;6.05;100.00
9035;BME280;4552;43.422;24.592;2023-03-01T03:16:41;100774.88;;;5.93;100.00
9035;BME280;4552;43.422;24.592;2023-03-01T03:19:08;100774.97;;;5.99;100.00
9035;BME280;4552;43.422;24.592;2023-03-01T03:21:35;100769.78;;;5.99;100.00
9035;BME280;4552;43.422;24.592;2023-03-01T03:24:03;100766.53;;;6.09;100.00
9035;BME280;4552;43.422;24.592;2023-03-01T03:26:30;100762.59;;;5.85;100.00
9035;BME280;4552;43.422;24.592;2023-03-01T03:28:58;100753.38;;;6.00;100.00
9035;BME280;4552;43.422;24.592;2023-03-01T03:31:26;100754.09;;;5.93;100.00
9035;BME280;4552;43.422;24.592;2023-03-01T03:33:55;100783.75;;;6.04;100.00
9035;BME280;4552;43.422;24.592;2023-03-01T03:36:23;100774.88;;;5.93;100.00
9035;BME280;4552;43.422;24.592;2023-03-01T03:38:50;100779.19;;;5.91;100.00
9035;BME280;4552;43.422;24.592;2023-03-01T03:41:17;100763.38;;;5.81;100.00
9035;BME280;4552;43.422;24.592;2023-03-01T03:43:45;100775.59;;;5.85;100.00
9035;BME280;4552;43.422;24.592;2023-03-01T03:46:12;100773.94;;;5.88;100.00
9035;BME280;4552;43.422;24.592;2023-03-01T03:48:41;100778.38;;;5.95;100.00
9035;BME280;4552;43.422;24.592;2023-03-01T03:51:12;100751.31;;;5.84;100.00
9035;BME280;4552;43.422;24.592;2023-03-01T03:53:40;100774.19;;;6.02;100.00
9035;BME280;4552;43.422;24.592;2023-03-01T03:56:08;100776.69;;;5.97;100.00
9035;BME280;4552;43.422;24.592;2023-03-01T03:58:38;100781.03;;;5.98;100.00
9035;BME280;4552;43.422;24.592;2023-03-01T04:01:05;100790.63;;;6.02;100.00
9035;BME280;4552;43.422;24.592;2023-03-01T04:03:33;100774.06;;;5.96;100.00
9035;BME280;4552;43.422;24.592;2023-03-01T04:06:02;100794.94;;;6.00;100.00
9035;BME280;4552;43.422;24.592;2023-03-01T04:08:33;100762.50;;;5.80;100.00
9035;BME280;4552;43.422;24.592;2023-03-01T04:11:02;100759.19;;;5.87;100.00
9035;BME280;4552;43.422;24.592;2023-03-01T04:13:50;100794.03;;;5.98;100.00
9035;BME280;4552;43.422;24.592;2023-03-01T04:16:18;100782.59;;;5.90;100.00
9035;BME280;4552;43.422;24.592;2023-03-01T04:18:45;100796.75;;;6.04;100.00
9035;BME280;4552;43.422;24.592;2023-03-01T04:21:13;100800.22;;;6.05;100.00
9035;BME280;4552;43.422;24.592;2023-03-01T04:23:42;100801.78;;;5.97;100.00
9035;BME280;4552;43.422;24.592;2023-03-01T04:26:09;100783.69;;;6.01;100.00
9035;BME280;4552;43.422;24.592;2023-03-01T04:28:37;100775.66;;;5.88;100.00
9035;BME280;4552;43.422;24.592;2023-03-01T04:31:07;100806.09;;;5.96;100.00
9035;BME280;4552;43.422;24.592;2023-03-01T04:33:39;100808.00;;;6.03;100.00
9035;BME280;4552;43.422;24.592;2023-03-01T04:36:08;100802.72;;;6.00;100.00
9035;BME280;4552;43.422;24.592;2023-03-01T04:38:36;100803.63;;;6.02;100.00
9035;BME280;4552;43.422;24.592;2023-03-01T04:41:06;100788.84;;;5.98;100.00
9035;BME280;4552;43.422;24.592;2023-03-01T04:43:34;100797.31;;;5.88;100.00
9035;BME280;4552;43.422;24.592;2023-03-01T04:46:02;100795.59;;;5.90;100.00
9035;BME280;4552;43.422;24.592;2023-03-01T04:48:31;100791.22;;;5.88;100.00
9035;BME280;4552;43.422;24.592;2023-03-01T04:50:59;100802.53;;;5.90;100.00
9035;BME280;4552;43.422;24.592;2023-03-01T04:53:27;100793.91;;;5.92;100.00
9035;BME280;4552;43.422;24.592;2023-03-01T04:55:54;100779.97;;;5.89;100.00
9035;BME280;4552;43.422;24.592;2023-03-01T04:58:24;100795.09;;;6.09;100.00
9035;BME280;4552;43.422;24.592;2023-03-01T05:00:51;100797.50;;;5.97;100.00
9035;BME280;4552;43.422;24.592;2023-03-01T05:03:19;100776.25;;;5.76;100.00
9035;BME280;4552;43.422;24.592;2023-03-01T05:05:48;100792.00;;;5.82;100.00
9035;BME280;4552;43.422;24.592;2023-03-01T05:08:17;100806.84;;;5.89;100.00
9035;BME280;4552;43.422;24.592;2023-03-01T05:10:45;100797.97;;;5.80;100.00
9035;BME280;4552;43.422;24.592;2023-03-01T05:13:14;100791.72;;;5.70;100.00
9035;BME280;4552;43.422;24.592;2023-03-01T05:15:48;100799.00;;;5.86;100.00
9035;BME280;4552;43.422;24.592;2023-03-01T05:18:15;100765.75;;;5.70;100.00
9035;BME280;4552;43.422;24.592;2023-03-01T05:20:43;100782.31;;;5.77;100.00
9035;BME280;4552;43.422;24.592;2023-03-01T05:23:11;100768.53;;;5.79;100.00
9035;BME280;4552;43.422;24.592;2023-03-01T05:25:38;100768.34;;;5.70;100.00
9035;BME280;4552;43.422;24.592;2023-03-01T05:28:07;100780.00;;;5.90;100.00
9035;BME280;4552;43.422;24.592;2023-03-01T05:30:37;100766.81;;;5.81;100.00
9035;BME280;4552;43.422;24.592;2023-03-01T05:33:10;100783.63;;;5.98;100.00
9035;BME280;4552;43.422;24.592;2023-03-01T05:35:39;100787.31;;;6.09;100.00
9035;BME280;4552;43.422;24.592;2023-03-01T05:38:08;100785.69;;;6.14;100.00
9035;BME280;4552;43.422;24.592;2023-03-01T05:40:39;100771.56;;;6.00;100.00
9035;BME280;4552;43.422;24.592;2023-03-01T05:43:11;100786.97;;;5.91;100.00
9035;BME280;4552;43.422;24.592;2023-03-01T05:45:39;100788.84;;;6.00;100.00
9035;BME280;4552;43.422;24.592;2023-03-01T05:48:09;100774.44;;;5.72;100.00
9035;BME280;4552;43.422;24.592;2023-03-01T05:50:38;100791.28;;;5.91;100.00
9035;BME280;4552;43.422;24.592;2023-03-01T05:53:07;100792.19;;;5.91;100.00
9035;BME280;4552;43.422;24.592;2023-03-01T05:55:36;100796.75;;;6.04;100.00
9035;BME280;4552;43.422;24.592;2023-03-01T05:58:07;100794.13;;;6.04;100.00
9035;BME280;4552;43.422;24.592;2023-03-01T06:00:35;100777.47;;;5.93;100.00
9035;BME280;4552;43.422;24.592;2023-03-01T06:03:02;100769.56;;;5.87;100.00
9035;BME280;4552;43.422;24.592;2023-03-01T06:05:32;100798.41;;;6.01;100.00
9035;BME280;4552;43.422;24.592;2023-03-01T06:08:01;100788.59;;;5.86;100.00
9035;BME280;4552;43.422;24.592;2023-03-01T06:10:29;100799.34;;;6.06;100.00
9035;BME280;4552;43.422;24.592;2023-03-01T06:12:56;100805.56;;;6.12;100.00
9035;BME280;4552;43.422;24.592;2023-03-01T06:15:24;100810.66;;;6.08;100.00
9035;BME280;4552;43.422;24.592;2023-03-01T06:17:53;100807.66;;;5.85;100.00
9035;BME280;4552;43.422;24.592;2023-03-01T06:20:24;100792.63;;;5.72;100.00
9035;BME280;4552;43.422;24.592;2023-03-01T06:22:52;100801.75;;;5.94;100.00
9035;BME280;4552;43.422;24.592;2023-03-01T06:25:22;100810.75;;;6.12;100.00
9035;BME280;4552;43.422;24.592;2023-03-01T06:27:49;100806.28;;;6.05;100.00
9035;BME280;4552;43.422;24.592;2023-03-01T06:30:18;100814.28;;;6.16;100.00
9035;BME280;4552;43.422;24.592;2023-03-01T06:32:46;100784.56;;;6.02;100.00
9035;BME280;4552;43.422;24.592;2023-03-01T06:35:15;100797.38;;;5.91;100.00
9035;BME280;4552;43.422;24.592;2023-03-01T06:37:43;100793.03;;;5.92;100.00
9035;BME280;4552;43.422;24.592;2023-03-01T06:40:13;100805.56;;;6.12;100.00
9035;BME280;4552;43.422;24.592;2023-03-01T06:42:48;100773.19;;;5.95;100.00
9035;BME280;4552;43.422;24.592;2023-03-01T06:45:17;100798.72;;;6.17;100.00
9035;BME280;4552;43.422;24.592;2023-03-01T06:47:44;100800.44;;;6.17;100.00
9035;BME280;4552;43.422;24.592;2023-03-01T06:50:12;100800.59;;;6.26;100.00
9035;BME280;4552;43.422;24.592;2023-03-01T06:52:39;100794.56;;;6.28;100.00
9035;BME280;4552;43.422;24.592;2023-03-01T06:55:09;100805.06;;;6.34;100.00
9035;BME280;4552;43.422;24.592;2023-03-01T06:57:38;100805.13;;;6.39;100.00
9035;BME280;4552;43.422;24.592;2023-03-01T07:00:06;100784.84;;;6.17;100.00
9035;BME280;4552;43.422;24.592;2023-03-01T07:02:33;100806.72;;;6.29;100.00
9035;BME280;4552;43.422;24.592;2023-03-01T07:05:00;100796.34;;;6.29;100.00
9035;BME280;4552;43.422;24.592;2023-03-01T07:07:30;100790.28;;;6.32;100.00
9035;BME280;4552;43.422;24.592;2023-03-01T07:09:59;100797.25;;;6.33;100.00
9035;BME280;4552;43.422;24.592;2023-03-01T07:12:26;100783.25;;;6.25;100.00
9035;BME280;4552;43.422;24.592;2023-03-01T07:14:55;100801.47;;;6.26;100.00
9035;BME280;4552;43.422;24.592;2023-03-01T07:17:22;100805.06;;;6.34;100.00
9035;BME280;4552;43.422;24.592;2023-03-01T07:19:49;100796.19;;;6.20;100.00
9035;BME280;4552;43.422;24.592;2023-03-01T07:22:15;100815.47;;;6.34;100.00
9035;BME280;4552;43.422;24.592;2023-03-01T07:24:42;100815.56;;;6.40;100.00
9035;BME280;4552;43.422;24.592;2023-03-01T07:27:10;100814.72;;;6.41;100.00
9035;BME280;4552;43.422;24.592;2023-03-01T07:29:38;100801.44;;;6.23;100.00
9035;BME280;4552;43.422;24.592;2023-03-01T07:32:11;100789.25;;;6.22;100.00
9035;BME280;4552;43.422;24.592;2023-03-01T07:34:38;100806.66;;;6.25;100.00
9035;BME280;4552;43.422;24.592;2023-03-01T07:37:08;100797.59;;;6.03;100.00
9035;BME280;4552;43.422;24.592;2023-03-01T07:39:35;100811.72;;;6.17;100.00
9035;BME280;4552;43.422;24.592;2023-03-01T07:42:02;100776.69;;;5.96;100.00
9035;BME280;4552;43.422;24.592;2023-03-01T07:44:32;100817.22;;;6.35;100.00
9035;BME280;4552;43.422;24.592;2023-03-01T07:47:00;100811.03;;;6.29;100.00
9035;BME280;4552;43.422;24.592;2023-03-01T07:49:28;100787.56;;;6.24;100.00
9035;BME280;4552;43.422;24.592;2023-03-01T07:51:55;100799.72;;;6.25;100.00
9035;BME280;4552;43.422;24.592;2023-03-01T07:54:22;100791.94;;;6.27;100.00
9035;BME280;4552;43.422;24.592;2023-03-01T07:56:49;100803.22;;;6.27;100.00
9035;BME280;4552;43.422;24.592;2023-03-01T07:59:16;100810.38;;;6.40;100.00
9035;BME280;4552;43.422;24.592;2023-03-01T08:01:43;100790.25;;;6.29;100.00
9035;BME280;4552;43.422;24.592;2023-03-01T08:04:11;100805.88;;;6.30;100.00
9035;BME280;4552;43.422;24.592;2023-03-01T08:06:42;100820.72;;;6.37;100.00
9035;BME280;4552;43.422;24.592;2023-03-01T08:09:09;100788.53;;;6.29;100.00
9035;BME280;4552;43.422;24.592;2023-03-01T08:11:36;100814.84;;;6.49;100.00
9035;BME280;4552;43.422;24.592;2023-03-01T08:14:03;100805.50;;;6.58;100.00
9035;BME280;4552;43.422;24.592;2023-03-01T08:16:30;100809.94;;;6.67;100.00
9035;BME280;4552;43.422;24.592;2023-03-01T08:19:03;100801.06;;;6.54;100.00
9035;BME280;4552;43.422;24.592;2023-03-01T08:21:31;100809.16;;;6.72;100.00
9035;BME280;4552;43.422;24.592;2023-03-01T08:24:02;100801.94;;;6.53;100.00
9035;BME280;4552;43.422;24.592;2023-03-01T08:26:32;100792.84;;;6.29;100.00
9035;BME280;4552;43.422;24.592;2023-03-01T08:29:00;100783.34;;;6.31;100.00
9035;BME280;4552;43.422;24.592;2023-03-01T08:31:29;100772.72;;;6.16;100.00
9035;BME280;4552;43.422;24.592;2023-03-01T08:33:59;100780.00;;;6.38;100.00
9035;BME280;4552;43.422;24.592;2023-03-01T08:36:29;100792.91;;;6.33;100.00
9035;BME280;4552;43.422;24.592;2023-03-01T08:38:57;100777.97;;;6.19;100.00
9035;BME280;4552;43.422;24.592;2023-03-01T08:41:28;100790.56;;;5.99;100.00
9035;BME280;4552;43.422;24.592;2023-03-01T08:43:55;100806.13;;;5.98;100.00
9035;BME280;4552;43.422;24.592;2023-03-01T08:46:25;100797.25;;;5.85;100.00
9035;BME280;4552;43.422;24.592;2023-03-01T08:48:52;100807.81;;;5.94;100.00
9035;BME280;4552;43.422;24.592;2023-03-01T08:51:22;100813.75;;;5.89;100.00
9035;BME280;4552;43.422;24.592;2023-03-01T08:53:49;100786.63;;;5.76;100.00
9035;BME280;4552;43.422;24.592;2023-03-01T08:56:17;100805.59;;;6.15;100.00
9035;BME280;4552;43.422;24.592;2023-03-01T08:58:47;100804.84;;;6.22;100.00
9035;BME280;4552;43.422;24.592;2023-03-01T09:01:16;100814.13;;;6.08;100.00
9035;BME280;4552;43.422;24.592;2023-03-01T09:03:43;100812.28;;;6.01;100.00
9035;BME280;4552;43.422;24.592;2023-03-01T09:06:11;100813.13;;;6.00;100.00
9035;BME280;4552;43.422;24.592;2023-03-01T09:08:40;100808.41;;;6.27;100.00
9035;BME280;4552;43.422;24.592;2023-03-01T09:11:08;100806.16;;;5.99;100.00
9035;BME280;4552;43.422;24.592;2023-03-01T09:13:36;100787.59;;;5.81;100.00
9035;BME280;4552;43.422;24.592;2023-03-01T09:16:06;100790.50;;;5.96;100.00
9035;BME280;4552;43.422;24.592;2023-03-01T09:18:34;100803.16;;;6.24;100.00
9035;BME280;4552;43.422;24.592;2023-03-01T09:21:03;100805.81;;;6.27;100.00
9035;BME280;4552;43.422;24.592;2023-03-01T09:23:33;100794.28;;;6.13;100.00
9035;BME280;4552;43.422;24.592;2023-03-01T09:26:02;100797.53;;;6.00;100.00
9035;BME280;4552;43.422;24.592;2023-03-01T09:28:29;100795.00;;;6.03;100.00
9035;BME280;4552;43.422;24.592;2023-03-01T09:30:58;100778.22;;;5.86;100.00
9035;BME280;4552;43.422;24.592;2023-03-01T09:33:27;100791.78;;;6.18;100.00
9035;BME280;4552;43.422;24.592;2023-03-01T09:35:57;100795.44;;;6.29;100.00
9035;BME280;4552;43.422;24.592;2023-03-01T09:38:25;100799.25;;;6.49;100.00
9035;BME280;4552;43.422;24.592;2023-03-01T09:40:52;100810.66;;;6.55;100.00
9035;BME280;4552;43.422;24.592;2023-03-01T09:43:25;100770.44;;;6.35;100.00
9035;BME280;4552;43.422;24.592;2023-03-01T09:45:58;100793.72;;;6.28;100.00
9035;BME280;4552;43.422;24.592;2023-03-01T09:48:33;100784.03;;;6.21;100.00
9035;BME280;4552;43.422;24.592;2023-03-01T09:51:18;100792.81;;;6.27;100.00
9035;BME280;4552;43.422;24.592;2023-03-01T09:53:46;100765.75;;;6.15;100.00
9035;BME280;4552;43.422;24.592;2023-03-01T09:56:17;100782.53;;;6.33;100.00
9035;BME280;4552;43.422;24.592;2023-03-01T09:58:52;100800.28;;;6.58;100.00
9035;BME280;4552;43.422;24.592;2023-03-01T10:01:34;100769.78;;;6.50;100.00
9035;BME280;4552;43.422;24.592;2023-03-01T10:04:26;100799.63;;;6.71;100.00
9035;BME280;4552;43.422;24.592;2023-03-01T10:07:05;100795.00;;;6.52;100.00
9035;BME280;4552;43.422;24.592;2023-03-01T10:09:36;100791.31;;;6.40;100.00
9035;BME280;4552;43.422;24.592;2023-03-01T10:12:09;100803.38;;;6.36;100.00
9035;BME280;4552;43.422;24.592;2023-03-01T10:14:55;100793.84;;;6.37;100.00
9035;BME280;4552;43.422;24.592;2023-03-01T10:17:27;100786.06;;;6.37;100.00
9035;BME280;4552;43.422;24.592;2023-03-01T10:20:14;100786.03;;;6.35;100.00
9035;BME280;4552;43.422;24.592;2023-03-01T10:22:42;100791.47;;;6.50;100.00
9035;BME280;4552;43.422;24.592;2023-03-01T10:25:18;100789.16;;;6.67;100.00
9035;BME280;4552;43.422;24.592;2023-03-01T10:27:55;100762.63;;;6.35;100.00
9035;BME280;4552;43.422;24.592;2023-03-01T10:30:34;100792.22;;;6.42;100.00
9035;BME280;4552;43.422;24.592;2023-03-01T10:33:13;100781.13;;;6.53;100.00
9035;BME280;4552;43.422;24.592;2023-03-01T10:35:44;100772.56;;;6.60;100.00
9035;BME280;4552;43.422;24.592;2023-03-01T10:38:13;100761.25;;;6.57;100.00
9035;BME280;4552;43.422;24.592;2023-03-01T10:40:51;100760.09;;;6.38;100.00
9035;BME280;4552;43.422;24.592;2023-03-01T10:43:19;100748.56;;;6.23;100.00
9035;BME280;4552;43.422;24.592;2023-03-01T10:45:49;100753.94;;;6.33;100.00
9035;BME280;4552;43.422;24.592;2023-03-01T10:48:18;100740.44;;;6.55;100.00
9035;BME280;4552;43.422;24.592;2023-03-01T10:51:03;100755.56;;;6.83;100.00
9035;BME280;4552;43.422;24.592;2023-03-01T10:53:34;100733.78;;;6.74;100.00
9035;BME280;4552;43.422;24.592;2023-03-01T10:56:05;100752.38;;;7.02;100.00
9035;BME280;4552;43.422;24.592;2023-03-01T10:58:34;100739.53;;;7.15;100.00
9035;BME280;4552;43.422;24.592;2023-03-01T11:01:04;100749.91;;;7.12;100.00
9035;BME280;4552;43.422;24.592;2023-03-01T11:03:33;100741.84;;;6.93;100.00
9035;BME280;4552;43.422;24.592;2023-03-01T11:06:06;100706.19;;;6.88;100.00
9035;BME280;4552;43.422;24.592;2023-03-01T11:08:39;100724.47;;;6.92;100.00
9035;BME280;4552;43.422;24.592;2023-03-01T11:11:18;100732.75;;;6.64;100.00
9035;BME280;4552;43.422;24.592;2023-03-01T11:13:53;100707.50;;;6.57;100.00
9035;BME280;4552;43.422;24.592;2023-03-01T11:16:25;100696.09;;;6.46;100.00
9035;BME280;4552;43.422;24.592;2023-03-01T11:18:58;100691.91;;;6.59;100.00
9035;BME280;4552;43.422;24.592;2023-03-01T11:21:32;100689.44;;;6.68;100.00
9035;BME280;4552;43.422;24.592;2023-03-01T11:24:01;100723.03;;;7.16;100.00
9035;BME280;4552;43.422;24.592;2023-03-01T11:26:37;100685.69;;;7.11;100.00
9035;BME280;4552;43.422;24.592;2023-03-01T11:29:25;100702.44;;;7.35;100.00
9035;BME280;4552;43.422;24.592;2023-03-01T11:31:57;100695.56;;;7.39;100.00
9035;BME280;4552;43.422;24.592;2023-03-01T11:34:38;100694.66;;;7.37;100.00
9035;BME280;4552;43.422;24.592;2023-03-01T11:37:19;100678.88;;;7.23;100.00
9035;BME280;4552;43.422;24.592;2023-03-01T11:39:54;100706.06;;;7.46;100.00
9035;BME280;4552;43.422;24.592;2023-03-01T11:42:48;100691.41;;;7.56;100.00
9035;BME280;4552;43.422;24.592;2023-03-01T11:45:18;100667.75;;;7.35;100.00
9035;BME280;4552;43.422;24.592;2023-03-01T11:48:04;100674.66;;;7.33;100.00
9035;BME280;4552;43.422;24.592;2023-03-01T11:50:40;100669.66;;;7.51;100.00
9035;BME280;4552;43.422;24.592;2023-03-01T11:53:32;100689.72;;;7.59;100.00
9035;BME280;4552;43.422;24.592;2023-03-01T11:56:14;100692.50;;;7.76;100.00
9035;BME280;4552;43.422;24.592;2023-03-01T11:59:13;100644.34;;;7.38;100.00
9035;BME280;4552;43.422;24.592;2023-03-01T12:07:47;100686.69;;;7.23;100.00
9035;BME280;4552;43.422;24.592;2023-03-01T12:10:25;100648.56;;;7.27;100.00
9035;BME280;4552;43.422;24.592;2023-03-01T12:16:02;100654.75;;;7.38;100.00
9035;BME280;4552;43.422;24.592;2023-03-01T12:19:01;100650.34;;;7.34;100.00
9035;BME280;4552;43.422;24.592;2023-03-01T12:21:45;100655.75;;;7.47;100.00
9035;BME280;4552;43.422;24.592;2023-03-01T12:25:06;100649.53;;;7.35;100.00
9035;BME280;4552;43.422;24.592;2023-03-01T12:30:44;100623.09;;;7.00;100.00
9035;BME280;4552;43.422;24.592;2023-03-01T12:33:19;100652.16;;;7.36;100.00
9035;BME280;4552;43.422;24.592;2023-03-01T12:36:12;100641.84;;;7.47;100.00
9035;BME280;4552;43.422;24.592;2023-03-01T12:38:48;100659.16;;;7.45;100.00
9035;BME280;4552;43.422;24.592;2023-03-01T12:41:40;100648.50;;;7.21;100.00
9035;BME280;4552;43.422;24.592;2023-03-01T12:44:29;100618.97;;;7.19;100.00
9035;BME280;4552;43.422;24.592;2023-03-01T12:47:11;100648.75;;;7.45;100.00
9035;BME280;4552;43.422;24.592;2023-03-01T12:49:47;100633.88;;;7.33;100.00
9035;BME280;4552;43.422;24.592;2023-03-01T12:52:22;100622.38;;;7.13;100.00
9035;BME280;4552;43.422;24.592;2023-03-01T12:54:53;100657.50;;;7.50;100.00
9035;BME280;4552;43.422;24.592;2023-03-01T12:57:29;100628.81;;;7.48;100.00
9035;BME280;4552;43.422;24.592;2023-03-01T13:00:15;100652.31;;;7.54;100.00
9035;BME280;4552;43.422;24.592;2023-03-01T13:02:50;100634.84;;;7.40;100.00
9035;BME280;4552;43.422;24.592;2023-03-01T13:05:28;100646.84;;;7.29;100.00
9035;BME280;4552;43.422;24.592;2023-03-01T13:08:02;100658.19;;;7.35;100.00
9035;BME280;4552;43.422;24.592;2023-03-01T13:10:40;100667.09;;;7.55;100.00
9035;BME280;4552;43.422;24.592;2023-03-01T13:13:18;100628.63;;;7.27;100.00
9035;BME280;4552;43.422;24.592;2023-03-01T13:15:52;100634.88;;;7.46;100.00
9035;BME280;4552;43.422;24.592;2023-03-01T13:18:29;100650.59;;;7.55;100.00
9035;BME280;4552;43.422;24.592;2023-03-01T13:20:58;100644.44;;;7.45;100.00
9035;BME280;4552;43.422;24.592;2023-03-01T13:23:28;100627.81;;;7.36;100.00
9035;BME280;4552;43.422;24.592;2023-03-01T13:26:13;100630.47;;;7.39;100.00
9035;BME280;4552;43.422;24.592;2023-03-01T13:28:52;100657.59;;;7.60;100.00
9035;BME280;4552;43.422;24.592;2023-03-01T13:34:44;100637.53;;;7.49;100.00
9035;BME280;4552;43.422;24.592;2023-03-01T13:37:26;100629.81;;;7.61;100.00